createdAt,value
2022-08-17T00:00:42.716Z,39.00
2022-08-17T00:03:11.229Z,39.37
2022-08-17T00:05:40.114Z,39.69
2022-08-17T00:08:06.651Z,40.31
2022-08-17T00:10:35.372Z,41.99
2022-08-17T00:13:02.060Z,42.72
2022-08-17T00:15:28.654Z,42.62
2022-08-17T00:17:55.182Z,42.51
2022-08-17T00:20:23.451Z,41.76
2022-08-17T00:22:57.180Z,41.61
2022-08-17T00:25:23.751Z,42.09
2022-08-17T00:27:50.326Z,41.46
2022-08-17T00:30:18.058Z,40.94
2022-08-17T00:33:14.541Z,41.14
2022-08-17T00:35:32.110Z,40.41
2022-08-17T00:37:59.345Z,40.32
2022-08-17T00:40:25.974Z,39.93
2022-08-17T00:42:52.517Z,39.63
2022-08-17T00:45:19.012Z,40.11
2022-08-17T00:47:46.204Z,40.46
2022-08-17T00:50:12.712Z,41.06
2022-08-17T00:52:41.359Z,41.08
2022-08-17T00:55:08.105Z,41.33
2022-08-17T00:57:35.200Z,41.22
2022-08-17T01:00:03.351Z,41.17
2022-08-17T01:02:30.522Z,40.71
2022-08-17T01:05:00.994Z,40.99
2022-08-17T01:07:27.796Z,41.87
2022-08-17T01:09:54.311Z,42.64
2022-08-17T01:12:20.818Z,41.68
2022-08-17T01:14:47.372Z,41.66
2022-08-17T01:17:14.141Z,41.94
2022-08-17T01:19:40.656Z,42.65
2022-08-17T01:22:07.081Z,42.10
2022-08-17T01:24:33.935Z,42.89
2022-08-17T01:27:00.800Z,43.13
2022-08-17T01:29:27.681Z,43.89
2022-08-17T01:31:54.243Z,43.74
2022-08-17T01:34:20.954Z,44.20
2022-08-17T01:36:47.614Z,44.75
2022-08-17T01:39:14.655Z,44.39
2022-08-17T01:41:41.485Z,44.23
2022-08-17T01:44:07.972Z,44.64
2022-08-17T01:46:34.802Z,45.44
2022-08-17T01:49:01.457Z,45.25
2022-08-17T01:51:28.808Z,45.31
2022-08-17T01:53:55.367Z,44.84
2022-08-17T01:56:22.093Z,45.40
2022-08-17T01:58:48.771Z,44.41
2022-08-17T02:01:15.328Z,43.05
2022-08-17T02:03:42.133Z,43.32
2022-08-17T02:06:27.839Z,43.44
2022-08-17T02:09:01.794Z,42.79
2022-08-17T02:11:28.664Z,41.96
2022-08-17T02:14:02.362Z,41.77
2022-08-17T02:16:37.853Z,41.90
2022-08-17T02:19:04.734Z,42.32
2022-08-17T02:21:31.842Z,43.68
2022-08-17T02:23:59.025Z,43.51
2022-08-17T02:26:26.440Z,43.87
2022-08-17T02:28:53.295Z,43.26
2022-08-17T02:31:20.126Z,43.54
2022-08-17T02:33:46.694Z,43.72
2022-08-17T02:36:27.601Z,44.41
2022-08-17T02:38:54.264Z,44.74
2022-08-17T02:41:20.844Z,45.78
2022-08-17T02:43:47.408Z,49.37
2022-08-17T02:46:13.911Z,48.14
2022-08-17T02:48:40.826Z,48.23
2022-08-17T02:51:07.626Z,50.22
2022-08-17T02:53:35.761Z,49.45
2022-08-17T02:56:02.869Z,49.33
2022-08-17T02:58:35.442Z,49.38
2022-08-17T03:01:03.481Z,48.86
2022-08-17T03:03:30.001Z,50.86
2022-08-17T03:05:56.894Z,50.45
2022-08-17T03:08:24.878Z,49.99
2022-08-17T03:10:52.306Z,49.00
2022-08-17T03:13:19.109Z,49.21
2022-08-17T03:15:45.728Z,49.36
2022-08-17T03:18:24.243Z,49.11
2022-08-17T03:20:52.031Z,48.91
2022-08-17T03:23:18.834Z,49.68
2022-08-17T03:25:53.024Z,50.45
2022-08-17T03:28:20.242Z,49.61
2022-08-17T03:30:46.809Z,48.87
2022-08-17T03:33:14.156Z,48.69
2022-08-17T03:35:40.969Z,48.32
2022-08-17T03:38:07.552Z,48.40
2022-08-17T03:40:57.059Z,50.43
2022-08-17T03:43:21.189Z,49.99
2022-08-17T03:45:47.910Z,51.24
2022-08-17T03:48:17.225Z,50.49
2022-08-17T03:50:43.919Z,49.69
2022-08-17T03:53:10.426Z,50.12
2022-08-17T03:55:36.986Z,49.70
2022-08-17T03:58:03.509Z,49.14
2022-08-17T04:00:30.291Z,48.88
2022-08-17T04:02:56.830Z,49.24
2022-08-17T04:05:23.393Z,49.64
2022-08-17T04:07:50.343Z,50.75
2022-08-17T04:10:17.218Z,50.58
2022-08-17T04:12:47.330Z,49.06
2022-08-17T04:15:13.915Z,49.51
2022-08-17T04:17:40.426Z,50.08
2022-08-17T04:20:07.279Z,49.23
2022-08-17T04:22:34.482Z,49.39
2022-08-17T04:25:02.437Z,49.60
2022-08-17T04:27:29.838Z,49.09
2022-08-17T04:29:56.440Z,50.37
2022-08-17T04:32:58.586Z,49.58
2022-08-17T04:35:09.618Z,49.11
2022-08-17T04:37:36.466Z,48.90
2022-08-17T04:40:04.874Z,49.91
2022-08-17T04:42:31.771Z,49.76
2022-08-17T04:44:58.512Z,49.43
2022-08-17T04:47:27.525Z,48.92
2022-08-17T04:49:54.328Z,47.92
2022-08-17T04:52:32.289Z,47.63
2022-08-17T04:55:08.113Z,47.66
2022-08-17T04:57:39.317Z,47.45
2022-08-17T05:00:08.430Z,46.49
2022-08-17T05:02:35.356Z,46.61
2022-08-17T05:05:16.164Z,47.08
2022-08-17T05:07:43.121Z,46.95
2022-08-17T05:10:09.645Z,46.08
2022-08-17T05:12:36.309Z,45.58
2022-08-17T05:15:05.264Z,45.39
2022-08-17T05:17:31.823Z,46.08
2022-08-17T05:19:58.692Z,46.87
2022-08-17T05:22:25.272Z,45.33
2022-08-17T05:24:53.989Z,45.27
2022-08-17T05:27:22.223Z,44.84
2022-08-17T05:29:50.335Z,46.01
2022-08-17T05:32:39.220Z,45.84
2022-08-17T05:35:03.432Z,46.06
2022-08-17T05:37:29.982Z,46.16
2022-08-17T05:39:56.544Z,45.60
2022-08-17T05:42:23.097Z,45.71
2022-08-17T05:44:49.629Z,45.26
2022-08-17T05:47:16.934Z,45.01
2022-08-17T05:49:44.381Z,44.54
2022-08-17T05:52:19.783Z,43.66
2022-08-17T05:54:47.525Z,43.57
2022-08-17T05:57:14.108Z,43.04
2022-08-17T05:59:40.975Z,43.17
2022-08-17T06:02:10.124Z,42.79
2022-08-17T06:04:36.988Z,42.34
2022-08-17T06:07:03.554Z,42.28
2022-08-17T06:09:33.805Z,41.20
2022-08-17T06:12:00.736Z,40.76
2022-08-17T06:14:28.172Z,40.74
2022-08-17T06:16:54.820Z,40.48
2022-08-17T06:19:21.896Z,40.57
2022-08-17T06:21:48.399Z,40.35
2022-08-17T06:24:15.003Z,39.91
2022-08-17T06:26:43.433Z,39.86
2022-08-17T06:29:10.033Z,39.71
2022-08-17T06:31:45.763Z,38.63
2022-08-17T06:34:12.532Z,38.27
2022-08-17T06:36:39.334Z,38.26
2022-08-17T06:39:05.904Z,37.88
2022-08-17T06:41:32.519Z,37.82
2022-08-17T06:43:59.025Z,38.91
2022-08-17T06:46:26.087Z,39.44
2022-08-17T06:48:52.604Z,37.68
2022-08-17T06:51:19.341Z,37.72
2022-08-17T06:53:46.066Z,37.05
2022-08-17T06:56:12.671Z,37.82
2022-08-17T06:58:40.216Z,37.43
2022-08-17T07:01:07.234Z,37.78
2022-08-17T07:03:34.520Z,37.70
2022-08-17T07:06:02.515Z,37.30
2022-08-17T07:08:32.062Z,37.51
2022-08-17T07:11:00.636Z,37.65
2022-08-17T07:13:27.124Z,38.18
2022-08-17T07:15:56.959Z,38.60
2022-08-17T07:18:23.778Z,37.99
2022-08-17T07:20:51.942Z,39.41
2022-08-17T07:23:18.622Z,38.85
2022-08-17T07:25:45.435Z,43.12
2022-08-17T07:28:12.296Z,42.86
2022-08-17T07:30:45.677Z,42.07
2022-08-17T07:33:16.604Z,41.46
2022-08-17T07:35:43.806Z,41.71
2022-08-17T07:38:25.941Z,42.19
2022-08-17T07:40:53.558Z,43.25
2022-08-17T07:43:22.365Z,45.49
2022-08-17T07:45:50.241Z,45.63
2022-08-17T07:48:17.133Z,44.99
2022-08-17T07:50:49.700Z,43.38
2022-08-17T07:53:17.667Z,43.35
2022-08-17T07:55:44.447Z,43.80
2022-08-17T07:58:13.394Z,43.32
2022-08-17T08:00:42.314Z,42.34
2022-08-17T08:03:11.255Z,42.15
2022-08-17T08:05:50.124Z,42.37
2022-08-17T08:08:17.782Z,42.89
2022-08-17T08:10:45.599Z,42.22
2022-08-17T08:13:14.430Z,43.54
2022-08-17T08:15:44.990Z,42.02
2022-08-17T08:18:15.933Z,44.54
2022-08-17T08:21:02.542Z,44.60
2022-08-17T08:23:29.143Z,43.49
2022-08-17T08:25:55.616Z,43.09
2022-08-17T08:28:23.068Z,43.46
2022-08-17T08:30:50.439Z,43.59
2022-08-17T08:33:17.107Z,43.89
2022-08-17T08:35:43.858Z,45.87
2022-08-17T08:38:10.446Z,45.62
2022-08-17T08:40:37.263Z,45.77
2022-08-17T08:43:03.789Z,45.70
2022-08-17T08:45:31.122Z,45.28
2022-08-17T08:47:57.674Z,44.19
2022-08-17T08:50:37.981Z,43.87
2022-08-17T08:53:05.110Z,42.68
2022-08-17T08:55:32.722Z,42.22
2022-08-17T08:57:59.255Z,42.09
2022-08-17T09:00:26.081Z,43.00
2022-08-17T09:02:52.831Z,44.40
2022-08-17T09:05:19.646Z,43.89
2022-08-17T09:07:46.427Z,42.60
2022-08-17T09:10:13.017Z,42.93
2022-08-17T09:12:42.015Z,42.56
2022-08-17T09:15:12.873Z,42.19
2022-08-17T09:17:39.730Z,41.55
2022-08-17T09:20:06.571Z,41.60
2022-08-17T09:22:35.286Z,41.85
2022-08-17T09:25:04.688Z,41.44
2022-08-17T09:27:31.445Z,40.28
2022-08-17T09:29:58.265Z,40.63
2022-08-17T09:32:24.795Z,40.05
2022-08-17T09:34:51.652Z,39.35
2022-08-17T09:37:21.369Z,38.66
2022-08-17T09:39:48.036Z,41.06
2022-08-17T09:42:14.696Z,42.71
2022-08-17T09:44:41.464Z,42.70
2022-08-17T09:47:08.029Z,42.71
2022-08-17T09:49:34.625Z,42.36
2022-08-17T09:52:01.271Z,41.35
2022-08-17T09:54:44.544Z,41.75
2022-08-17T09:57:29.866Z,41.03
2022-08-17T09:59:57.095Z,40.66
2022-08-17T10:02:24.464Z,39.88
2022-08-17T10:04:51.469Z,37.85
2022-08-17T10:07:18.268Z,38.10
2022-08-17T10:09:45.156Z,36.77
2022-08-17T10:12:12.200Z,36.03
2022-08-17T10:14:44.711Z,35.77
2022-08-17T10:17:20.319Z,35.75
2022-08-17T10:19:48.135Z,35.96
2022-08-17T10:22:34.721Z,35.90
2022-08-17T10:25:21.661Z,36.35
2022-08-17T10:27:48.439Z,36.47
2022-08-17T10:30:23.546Z,36.48
2022-08-17T10:32:50.294Z,36.01
2022-08-17T10:35:16.779Z,35.83
2022-08-17T10:37:43.929Z,35.98
2022-08-17T10:40:10.991Z,36.27
2022-08-17T10:42:37.538Z,35.40
2022-08-17T10:45:11.346Z,35.51
2022-08-17T10:47:54.934Z,36.04
2022-08-17T10:50:22.500Z,35.47
2022-08-17T10:52:50.246Z,35.74
2022-08-17T10:55:17.168Z,36.19
2022-08-17T10:57:43.972Z,35.82
2022-08-17T11:00:10.830Z,35.81
2022-08-17T11:02:39.524Z,36.36
2022-08-17T11:05:13.526Z,36.46
2022-08-17T11:07:40.227Z,36.93
2022-08-17T11:10:06.970Z,36.43
2022-08-17T11:12:33.498Z,36.54
2022-08-17T11:15:00.040Z,36.76
2022-08-17T11:17:29.622Z,36.61
2022-08-17T11:19:56.192Z,36.68
2022-08-17T11:22:23.035Z,36.76
2022-08-17T11:24:49.779Z,36.62
2022-08-17T11:27:20.040Z,36.68
2022-08-17T11:29:51.998Z,36.81
2022-08-17T11:32:19.576Z,37.10
2022-08-17T11:34:48.848Z,37.41
2022-08-17T11:37:15.694Z,36.74
2022-08-17T11:39:42.539Z,36.54
2022-08-17T11:42:09.160Z,36.09
2022-08-17T11:44:35.725Z,36.50
2022-08-17T11:47:02.356Z,36.79
2022-08-17T11:49:28.868Z,36.66
2022-08-17T11:51:55.599Z,36.35
2022-08-17T11:54:32.758Z,36.22
2022-08-17T11:57:00.537Z,35.84
2022-08-17T11:59:27.813Z,35.86
2022-08-17T12:01:54.311Z,36.39
2022-08-17T12:04:20.903Z,36.61
2022-08-17T12:06:47.516Z,36.53
2022-08-17T12:09:14.383Z,35.91
2022-08-17T12:11:58.789Z,35.30
2022-08-17T12:14:45.417Z,35.32
2022-08-17T12:17:22.452Z,35.12
2022-08-17T12:20:01.384Z,34.45
2022-08-17T12:22:31.332Z,34.31
2022-08-17T12:24:58.089Z,33.93
2022-08-17T12:28:04.189Z,34.48
2022-08-17T12:30:14.334Z,34.91
2022-08-17T12:32:40.954Z,35.04
2022-08-17T12:35:07.470Z,35.38
2022-08-17T12:37:35.304Z,35.29
2022-08-17T12:40:01.889Z,34.66
2022-08-17T12:42:28.656Z,33.92
2022-08-17T12:44:55.421Z,33.78
2022-08-17T12:47:23.125Z,33.46
2022-08-17T12:49:50.793Z,32.80
2022-08-17T12:52:17.349Z,32.42
2022-08-17T12:54:44.220Z,31.98
2022-08-17T12:57:10.834Z,32.50
2022-08-17T12:59:37.684Z,31.72
2022-08-17T13:02:04.773Z,32.22
2022-08-17T13:04:31.710Z,32.39
2022-08-17T13:07:00.274Z,30.94
2022-08-17T13:09:33.578Z,31.68
2022-08-17T13:12:07.686Z,30.73
2022-08-17T13:14:34.741Z,31.24
2022-08-17T13:17:01.190Z,30.57
2022-08-17T13:19:40.296Z,30.06
2022-08-17T13:22:08.640Z,31.32
2022-08-17T13:24:38.217Z,30.27
2022-08-17T13:27:12.688Z,30.07
2022-08-17T13:29:39.255Z,31.58
2022-08-17T13:32:13.462Z,31.49
2022-08-17T13:35:12.921Z,29.03
2022-08-17T13:37:29.137Z,28.69
2022-08-17T13:39:55.973Z,28.87
2022-08-17T13:42:23.589Z,28.11
2022-08-17T13:44:51.143Z,29.54
2022-08-17T13:47:17.773Z,30.94
2022-08-17T13:49:48.925Z,30.63
2022-08-17T13:52:16.220Z,30.48
2022-08-17T13:54:47.193Z,29.62
2022-08-17T13:57:14.048Z,29.50
2022-08-17T13:59:53.857Z,29.24
2022-08-17T14:02:22.072Z,29.29
2022-08-17T14:04:48.885Z,28.91
2022-08-17T14:07:17.690Z,28.84
2022-08-17T14:09:44.193Z,27.95
2022-08-17T14:12:11.044Z,28.40
2022-08-17T14:14:38.703Z,28.25
2022-08-17T14:17:08.004Z,28.56
2022-08-17T14:19:35.045Z,29.11
2022-08-17T14:22:04.009Z,29.51
2022-08-17T14:24:30.617Z,29.50
2022-08-17T14:26:59.512Z,29.46
2022-08-17T14:29:26.330Z,28.56
2022-08-17T14:31:54.292Z,28.71
2022-08-17T14:34:23.436Z,29.48
2022-08-17T14:36:50.028Z,30.32
2022-08-17T14:39:18.378Z,30.61
2022-08-17T14:41:47.899Z,30.24
2022-08-17T14:44:16.823Z,30.06
2022-08-17T14:46:43.459Z,29.80
2022-08-17T14:49:10.093Z,29.83
2022-08-17T14:51:37.303Z,30.11
2022-08-17T14:54:25.596Z,29.20
2022-08-17T14:57:32.937Z,29.61
2022-08-17T14:59:46.830Z,29.40
2022-08-17T15:02:13.343Z,30.25
2022-08-17T15:04:45.411Z,29.48
2022-08-17T15:07:19.419Z,29.32
2022-08-17T15:09:49.070Z,29.41
2022-08-17T15:12:16.104Z,30.33
2022-08-17T15:14:44.903Z,29.67
2022-08-17T15:17:11.796Z,29.93
2022-08-17T15:19:38.736Z,28.81
2022-08-17T15:22:05.473Z,28.96
2022-08-17T15:24:34.164Z,29.45
2022-08-17T15:27:01.160Z,29.35
2022-08-17T15:29:28.762Z,28.91
2022-08-17T15:32:00.474Z,29.61
2022-08-17T15:34:29.014Z,29.23
2022-08-17T15:36:55.759Z,28.77
2022-08-17T15:39:24.391Z,28.55
2022-08-17T15:41:57.944Z,28.34
2022-08-17T15:44:34.876Z,29.84
2022-08-17T15:47:01.691Z,30.23
2022-08-17T15:49:28.726Z,31.02
2022-08-17T15:51:56.300Z,32.48
2022-08-17T15:54:23.467Z,33.01
2022-08-17T15:56:50.116Z,33.60
2022-08-17T15:59:18.020Z,33.67
2022-08-17T16:03:14.277Z,33.84
2022-08-17T16:04:32.178Z,34.82
2022-08-17T16:06:59.173Z,34.36
2022-08-17T16:09:28.885Z,36.37
2022-08-17T16:11:56.296Z,37.11
2022-08-17T16:14:24.073Z,37.49
2022-08-17T16:16:51.170Z,37.96
2022-08-17T16:19:18.319Z,37.41
2022-08-17T16:21:46.155Z,38.60
2022-08-17T16:24:14.811Z,41.05
2022-08-17T16:26:41.869Z,41.85
2022-08-17T16:29:08.522Z,43.30
2022-08-17T16:31:35.443Z,43.78
2022-08-17T16:34:17.208Z,45.90
2022-08-17T16:36:54.819Z,51.07
2022-08-17T16:39:23.134Z,50.11
2022-08-17T16:41:51.767Z,50.88
2022-08-17T16:44:20.505Z,52.56
2022-08-17T16:46:47.795Z,52.20
2022-08-17T16:49:36.238Z,51.58
2022-08-17T16:52:01.393Z,51.97
2022-08-17T16:54:27.904Z,53.21
2022-08-17T16:56:54.718Z,53.70
2022-08-17T16:59:31.337Z,55.13
2022-08-17T17:02:08.370Z,55.57
2022-08-17T17:04:35.433Z,56.83
2022-08-17T17:07:02.028Z,57.92
2022-08-17T17:09:28.556Z,58.14
2022-08-17T17:11:55.131Z,58.68
2022-08-17T17:14:22.700Z,57.90
2022-08-17T17:16:49.283Z,57.80
2022-08-17T17:19:15.759Z,56.94
2022-08-17T17:21:46.085Z,57.40
2022-08-17T17:24:12.682Z,56.50
2022-08-17T17:26:40.011Z,56.80
2022-08-17T17:29:06.811Z,56.91
2022-08-17T17:31:34.637Z,57.02
2022-08-17T17:34:01.406Z,54.84
2022-08-17T17:36:37.705Z,53.57
2022-08-17T17:39:04.155Z,53.81
2022-08-17T17:41:30.661Z,53.36
2022-08-17T17:43:57.205Z,53.85
2022-08-17T17:46:29.513Z,52.32
2022-08-17T17:48:56.305Z,52.01
2022-08-17T17:51:55.037Z,53.03
2022-08-17T17:54:10.146Z,50.39
2022-08-17T17:56:43.271Z,51.38
2022-08-17T17:59:12.783Z,51.79
2022-08-17T18:01:39.912Z,51.90
2022-08-17T18:04:17.066Z,52.82
2022-08-17T18:06:47.701Z,52.55
2022-08-17T18:09:18.037Z,52.80
2022-08-17T18:11:46.423Z,54.53
2022-08-17T18:14:18.362Z,55.26
2022-08-17T18:16:44.985Z,56.43
2022-08-17T18:19:11.567Z,57.77
2022-08-17T18:21:38.396Z,58.97
2022-08-17T18:24:04.954Z,56.37
2022-08-17T18:26:32.119Z,55.80
2022-08-17T18:28:58.860Z,55.06
2022-08-17T18:31:25.883Z,55.16
2022-08-17T18:33:53.153Z,55.38
2022-08-17T18:36:22.195Z,57.46
2022-08-17T18:38:49.261Z,58.05
2022-08-17T18:41:16.084Z,58.64
2022-08-17T18:43:52.954Z,57.10
2022-08-17T18:46:29.014Z,55.82
2022-08-17T18:48:56.118Z,55.59
2022-08-17T18:51:39.827Z,55.45
2022-08-17T18:54:09.137Z,57.21
2022-08-17T18:56:36.709Z,57.31
2022-08-17T18:59:03.281Z,58.33
2022-08-17T19:01:41.930Z,58.47
2022-08-17T19:04:16.557Z,57.56
2022-08-17T19:06:50.556Z,58.39
2022-08-17T19:09:17.409Z,60.42
2022-08-17T19:11:44.267Z,59.72
2022-08-17T19:14:11.148Z,60.41
2022-08-17T19:16:37.607Z,60.95
2022-08-17T19:19:04.286Z,60.39
2022-08-17T19:21:31.126Z,60.40
2022-08-17T19:23:57.910Z,61.07
2022-08-17T19:26:53.608Z,61.11
2022-08-17T19:29:12.058Z,61.40
2022-08-17T19:31:38.649Z,61.28
2022-08-17T19:34:05.494Z,61.20
2022-08-17T19:36:32.321Z,62.09
2022-08-17T19:38:58.841Z,60.28
2022-08-17T19:41:25.885Z,60.74
2022-08-17T19:43:53.009Z,58.56
2022-08-17T19:46:19.576Z,58.73
2022-08-17T19:48:48.371Z,57.43
2022-08-17T19:51:15.117Z,57.86
2022-08-17T19:54:03.971Z,57.45
2022-08-17T19:56:28.400Z,57.93
2022-08-17T19:58:54.941Z,58.71
2022-08-17T20:01:22.431Z,58.34
2022-08-17T20:03:49.143Z,57.30
2022-08-17T20:06:15.645Z,57.20
2022-08-17T20:08:42.370Z,57.06
2022-08-17T20:11:08.930Z,55.67
2022-08-17T20:13:35.690Z,55.03
2022-08-17T20:16:10.069Z,55.83
2022-08-17T20:18:36.960Z,54.27
2022-08-17T20:21:03.783Z,54.04
2022-08-17T20:23:30.337Z,53.39
2022-08-17T20:25:58.978Z,52.83
2022-08-17T20:28:25.925Z,52.79
2022-08-17T20:30:52.500Z,52.83
2022-08-17T20:33:19.024Z,52.63
2022-08-17T20:35:45.988Z,53.30
2022-08-17T20:38:13.235Z,52.41
2022-08-17T20:40:40.536Z,52.80
2022-08-17T20:43:07.355Z,51.96
2022-08-17T20:45:33.855Z,52.24
2022-08-17T20:48:33.299Z,54.23
2022-08-17T20:50:47.847Z,54.64
2022-08-17T20:53:16.897Z,54.85
2022-08-17T20:55:52.233Z,53.98
2022-08-17T20:58:19.437Z,53.10
2022-08-17T21:00:46.194Z,51.41
2022-08-17T21:03:13.143Z,50.81
2022-08-17T21:05:40.433Z,49.63
2022-08-17T21:08:07.268Z,49.20
2022-08-17T21:10:34.247Z,48.94
2022-08-17T21:13:00.880Z,48.46
2022-08-17T21:15:29.369Z,47.74
2022-08-17T21:17:56.378Z,46.53
2022-08-17T21:20:23.064Z,46.78
2022-08-17T21:22:49.878Z,47.83
2022-08-17T21:25:17.168Z,48.63
2022-08-17T21:27:43.975Z,47.70
2022-08-17T21:30:13.536Z,47.58
2022-08-17T21:32:42.109Z,48.06
2022-08-17T21:35:08.757Z,48.12
2022-08-17T21:37:35.618Z,48.52
2022-08-17T21:40:02.281Z,49.01
2022-08-17T21:42:29.208Z,48.67
2022-08-17T21:44:56.463Z,48.46
2022-08-17T21:47:23.010Z,49.37
2022-08-17T21:49:50.285Z,50.13
2022-08-17T21:52:16.817Z,51.28
2022-08-17T21:54:46.300Z,53.52
2022-08-17T21:57:12.772Z,54.23
2022-08-17T21:59:39.834Z,54.16
2022-08-17T22:02:08.838Z,51.89
2022-08-17T22:04:35.558Z,51.21
2022-08-17T22:07:02.414Z,49.95
2022-08-17T22:09:29.741Z,49.33
2022-08-17T22:11:58.445Z,50.33
2022-08-17T22:14:25.236Z,48.90
2022-08-17T22:16:52.037Z,48.27
2022-08-17T22:19:18.718Z,49.21
2022-08-17T22:21:45.224Z,49.89
2022-08-17T22:24:12.019Z,49.95
2022-08-17T22:26:38.523Z,49.46
2022-08-17T22:29:06.232Z,49.03
2022-08-17T22:31:35.263Z,49.45
2022-08-17T22:34:01.779Z,51.10
2022-08-17T22:36:29.073Z,53.69
2022-08-17T22:38:56.490Z,54.59
2022-08-17T22:41:23.303Z,53.40
2022-08-17T22:43:50.069Z,53.92
2022-08-17T22:46:18.542Z,54.00
2022-08-17T22:48:45.210Z,54.99
2022-08-17T22:51:12.540Z,56.04
2022-08-17T22:53:39.700Z,57.56
2022-08-17T22:56:06.244Z,58.48
2022-08-17T22:58:35.630Z,60.03
2022-08-17T23:01:02.637Z,59.36
2022-08-17T23:03:29.154Z,60.17
2022-08-17T23:05:55.702Z,57.85
2022-08-17T23:08:24.819Z,55.70
2022-08-17T23:10:51.491Z,54.55
2022-08-17T23:13:18.305Z,53.85
2022-08-17T23:15:47.121Z,53.41
2022-08-17T23:18:13.885Z,54.24
2022-08-17T23:20:42.691Z,53.67
2022-08-17T23:23:09.716Z,54.26
2022-08-17T23:25:36.571Z,52.58
2022-08-17T23:28:04.132Z,52.22
2022-08-17T23:30:30.992Z,51.85
2022-08-17T23:32:57.967Z,53.02
2022-08-17T23:35:40.278Z,52.74
2022-08-17T23:38:15.090Z,52.71
2022-08-17T23:40:41.921Z,52.73
2022-08-17T23:43:17.612Z,52.12
2022-08-17T23:45:52.081Z,52.25
2022-08-17T23:48:35.268Z,51.03
2022-08-17T23:51:04.109Z,51.68
2022-08-17T23:53:31.476Z,51.25
2022-08-17T23:56:06.947Z,51.86
2022-08-17T23:58:36.868Z,52.10
